Sea Drift — WDC2818 — position and weather

sailwx.info

Track history (hours):
 
Tides and Currents Weather Stations Pressure Air Temp Water Temp Dewpoint Dewpoint Depression Visibility Wind Speed Wind Dir Waves Ship Positions

Sea Drift

Owner: Marquette Transportation Company Gulf-Inland, LLC, Jefferson, LA. More information available from US FCC via Universal Licensing System and Coast Guard Vessel Documentation Center.

Last reported at 2017-Aug-19 10:02 UTC. Time now 2017-Sep-25 18:58 UTC.
Position N 29°31' W 094°53'.
Warning: this ship's position is 37 days out of date.

Length 206 m; draft 3 m.

Type: Towing. MMSI: 366998080.

Date/timePositionNaut miles runAvg speedWind from/ knotsBaromVisibWave heightAir tempDewpointWater temp
2017-Aug-19 10:02N 29°31' W 094°53'1 4.1
2017-Aug-19 09:52N 29°32' W 094°54'2 4.4
2017-Aug-19 09:30N 29°33' W 094°55'3 4.9
2017-Aug-19 08:52N 29°36' W 094°57'2 4.8
2017-Aug-19 08:31N 29°37' W 094°58'3 5.1
2017-Aug-19 08:01N 29°40' W 094°59'2 4.6
2017-Aug-19 07:30N 29°42' W 094°60'2 4.1
2017-Aug-19 07:01N 29°43' W 095°01'2 4.5
2017-Aug-19 06:27N 29°45' W 095°04'2 3.1
2017-Aug-19 05:55N 29°45' W 095°06'2 5.3
2017-Aug-19 05:29N 29°44' W 095°08'2 3.8
2017-Aug-19 04:55N 29°45' W 095°10'1 1.4
2017-Aug-19 04:27N 29°45' W 095°11'0 0.1
2017-Aug-19 03:48N 29°45' W 095°11'0 0.0
2017-Aug-19 03:13N 29°45' W 095°11'1 2.6
2017-Aug-19 02:59N 29°45' W 095°10'1 1.0
2017-Aug-19 02:25N 29°45' W 095°11'0 0.1
2017-Aug-19 01:57N 29°45' W 095°11'0 0.5
2017-Aug-19 01:23N 29°45' W 095°10'0 0.0
2017-Aug-18 19:32N 29°45' W 095°10'1 2.5
2017-Aug-18 19:19N 29°45' W 095°11'0 0.3
2017-Aug-18 18:50N 29°45' W 095°11'0 0.1
2017-Aug-18 18:20N 29°45' W 095°11'1 1.1
2017-Aug-18 17:48N 29°45' W 095°10'1 3.7
2017-Aug-18 17:28N 29°44' W 095°09'2 4.4
2017-Aug-18 17:00N 29°44' W 095°07'2 4.2
2017-Aug-18 16:30N 29°46' W 095°05'2 4.1
2017-Aug-18 16:00N 29°44' W 095°03'2 4.3
2017-Aug-18 15:31N 29°43' W 095°01'2 3.7
2017-Aug-18 15:00N 29°42' W 094°60'4 3.9
2017-Aug-18 14:01N 29°38' W 094°58'2 4.4
2017-Aug-18 13:30N 29°36' W 094°57'2 4.5
2017-Aug-18 13:00N 29°34' W 094°56'2 4.7
2017-Aug-18 12:30N 29°32' W 094°54'2 4.8
2017-Aug-18 11:59N 29°30' W 094°52'69 3.3
2017-Aug-17 15:18N 30°03' W 093°43'1 3.7
2017-Aug-17 15:00N 30°03' W 093°42'2 3.6
2017-Aug-17 14:30N 30°04' W 093°40'2 3.6
2017-Aug-17 14:01N 30°04' W 093°38'2 3.6
2017-Aug-17 13:30N 30°04' W 093°36'2 3.7
2017-Aug-17 13:01N 30°04' W 093°34'2 3.8
2017-Aug-17 12:31N 30°04' W 093°31'2 3.9
2017-Aug-17 12:01N 30°04' W 093°29'2 3.9
2017-Aug-17 11:31N 30°04' W 093°27'2 3.9
2017-Aug-17 11:01N 30°04' W 093°25'2 4.0
2017-Aug-17 10:31N 30°04' W 093°22'2 4.0
2017-Aug-17 10:01N 30°05' W 093°20'2 4.4
2017-Aug-17 09:30N 30°06' W 093°19'1 2.7
2017-Aug-17 09:00N 30°05' W 093°18'1 2.2
2017-Aug-17 08:31N 30°05' W 093°17'0 0.6
2017-Aug-17 08:01N 30°04' W 093°16'0 1.0
2017-Aug-17 07:31N 30°04' W 093°16'2 3.9
2017-Aug-17 07:01N 30°02' W 093°15'2 4.0
2017-Aug-17 06:31N 30°01' W 093°14'2 4.6
2017-Aug-17 06:01N 29°59' W 093°12'2 4.4
2017-Aug-17 05:31N 29°57' W 093°10'2 4.0
2017-Aug-17 05:01N 29°56' W 093°09'38 3.5
2017-Aug-16 17:56N 29°53' W 092°24'2 3.8
2017-Aug-16 17:30N 29°52' W 092°23'1 2.0
2017-Aug-16 16:45N 29°51' W 092°22'1 3.7
2017-Aug-16 16:31N 29°51' W 092°21'1 2.0
2017-Aug-16 16:01N 29°50' W 092°20'2 3.5
2017-Aug-16 15:31N 29°50' W 092°18'2 3.7
2017-Aug-16 15:01N 29°49' W 092°16'2 3.9
2017-Aug-16 14:31N 29°48' W 092°14'2 3.4
2017-Aug-16 14:01N 29°47' W 092°12'1 1.8
2017-Aug-16 13:30N 29°47' W 092°11'0 0.0
2017-Aug-16 13:01N 29°47' W 092°11'0 0.3
2017-Aug-16 12:31N 29°47' W 092°11'0 0.5
2017-Aug-16 12:01N 29°47' W 092°11'0 0.0
2017-Aug-16 11:31N 29°47' W 092°11'0 0.0
2017-Aug-16 11:01N 29°47' W 092°11'0 0.0
2017-Aug-16 10:30N 29°47' W 092°11'0 0.0
2017-Aug-16 10:01N 29°47' W 092°11'0 0.0
2017-Aug-16 09:31N 29°47' W 092°11'0 0.0
2017-Aug-16 09:00N 29°47' W 092°11'0 0.0
2017-Aug-16 08:31N 29°47' W 092°11'0 0.1
2017-Aug-16 08:01N 29°47' W 092°11'2 3.2
2017-Aug-16 07:31N 29°47' W 092°09'2 3.9
2017-Aug-16 07:01N 29°48' W 092°07'2 3.5
2017-Aug-16 06:31N 29°48' W 092°05'2 4.1
2017-Aug-16 06:01N 29°49' W 092°03'2 4.1
2017-Aug-16 05:31N 29°50' W 092°01'2 3.6
2017-Aug-16 05:00N 29°50' W 091°59'2 3.7
2017-Aug-16 04:30N 29°51' W 091°56'  
2017-Aug-13 07:06N 30°03' W 090°34'1 3.7
2017-Aug-13 06:50N 30°03' W 090°33'1 3.5
2017-Aug-13 06:31N 30°03' W 090°32'2 3.4
2017-Aug-13 05:57N 30°03' W 090°29'3 0.5
2017-Aug-12 23:57N 30°00' W 090°28'6 3.9
2017-Aug-12 22:25N 29°57' W 090°23'24 1.4
2017-Aug-12 05:20N 29°33' W 090°24'3 4.7
2017-Aug-12 04:47N 29°33' W 090°27'1 4.1
2017-Aug-12 04:30N 29°33' W 090°28'2 4.1
2017-Aug-12 04:00N 29°34' W 090°31'2 4.7
2017-Aug-12 03:30N 29°34' W 090°33'2 4.6
2017-Aug-12 03:00N 29°35' W 090°36'2 4.3
2017-Aug-12 02:30N 29°35' W 090°38'2 4.2
2017-Aug-12 02:00N 29°36' W 090°40'2 3.8
2017-Aug-12 01:30N 29°37' W 090°42'2 3.6
2017-Aug-12 01:00N 29°35' W 090°43'2 3.1
2017-Aug-12 00:30N 29°34' W 090°44'1 2.9
2017-Aug-12 00:00N 29°33' W 090°45'0 0.7
2017-Aug-11 23:30N 29°33' W 090°45'0 0.0
2017-Aug-11 23:00N 29°33' W 090°45'0 0.0
2017-Aug-11 22:30N 29°33' W 090°46'1 2.5
2017-Aug-11 22:00N 29°32' W 090°47'3 5.3
2017-Aug-11 21:30N 29°32' W 090°50'3 5.2
2017-Aug-11 21:00N 29°32' W 090°53'3 5.3
2017-Aug-11 20:30N 29°34' W 090°56'3 5.0
2017-Aug-11 19:59N 29°35' W 090°58'51 3.2
2017-Aug-11 03:53N 29°51' W 091°54'2 4.5
2017-Aug-11 03:27N 29°51' W 091°57'2 4.3
2017-Aug-11 03:00N 29°50' W 091°59'2 4.4
2017-Aug-11 02:30N 29°49' W 092°01'2 4.4
2017-Aug-11 02:00N 29°49' W 092°03'2 4.4
2017-Aug-11 01:30N 29°48' W 092°06'2 4.5
2017-Aug-11 01:00N 29°47' W 092°08'2 4.3
2017-Aug-11 00:30N 29°47' W 092°11'1 1.7
2017-Aug-11 00:00N 29°47' W 092°12'1 2.4
2017-Aug-10 23:30N 29°47' W 092°13'2 3.6
2017-Aug-10 23:00N 29°48' W 092°15'2 4.6
2017-Aug-10 22:30N 29°49' W 092°17'2 4.2
2017-Aug-10 22:00N 29°50' W 092°19'1 2.5
2017-Aug-10 21:30N 29°51' W 092°20'39 4.2
2017-Aug-10 12:17N 29°56' W 093°05'2 4.1
2017-Aug-10 11:48N 29°56' W 093°07'1 4.1
2017-Aug-10 11:30N 29°56' W 093°08'2 3.7
2017-Aug-10 11:00N 29°57' W 093°10'2 4.1
2017-Aug-10 10:30N 29°58' W 093°12'2 4.0
2017-Aug-10 10:00N 29°60' W 093°13'2 3.4
2017-Aug-10 09:30N 30°02' W 093°14'2 3.9
2017-Aug-10 09:00N 30°03' W 093°16'2 3.3
2017-Aug-10 08:30N 30°04' W 093°16'2 3.2
2017-Aug-10 08:00N 30°05' W 093°18'1 2.1
2017-Aug-10 07:30N 30°06' W 093°19'1 1.3
2017-Aug-10 07:00N 30°06' W 093°19'2 4.7
2017-Aug-10 06:30N 30°04' W 093°21'1 1.9
2017-Aug-10 06:00N 30°04' W 093°22'0 0.1
2017-Aug-10 05:30N 30°04' W 093°22'0 0.1
2017-Aug-10 05:00N 30°04' W 093°22'0 0.1
2017-Aug-10 04:30N 30°04' W 093°22'0 0.2
2017-Aug-10 04:00N 30°04' W 093°22'0 0.7
2017-Aug-10 03:30N 30°04' W 093°22'0 0.8
2017-Aug-10 03:00N 30°04' W 093°22'0 1.0
2017-Aug-10 02:30N 30°04' W 093°22'0 0.1
2017-Aug-10 02:00N 30°04' W 093°22'0 0.9
2017-Aug-10 01:30N 30°04' W 093°22'0 0.0
2017-Aug-10 01:00N 30°04' W 093°22'0 0.1
2017-Aug-10 00:30N 30°04' W 093°22'1 2.3
2017-Aug-10 00:00N 30°04' W 093°23'3 5.3
2017-Aug-09 23:30N 30°04' W 093°27'3 5.4
2017-Aug-09 23:00N 30°04' W 093°30'3 5.4
2017-Aug-09 22:30N 30°04' W 093°33'3 5.5
2017-Aug-09 22:00N 30°04' W 093°36'3 5.5
2017-Aug-09 21:30N 30°04' W 093°39'3 5.2
2017-Aug-09 20:59N 30°03' W 093°42'  
Track history (hours):
 
Tides and Currents Weather Stations Pressure Air Temp Water Temp Dewpoint Dewpoint Depression Visibility Wind Speed Wind Dir Waves Ship Positions

Sea Drift

Owner: Marquette Transportation Company Gulf-Inland, LLC, Jefferson, LA. More information available from US FCC via Universal Licensing System and Coast Guard Vessel Documentation Center.

Last reported at 2017-Aug-19 10:02 UTC. Time now 2017-Sep-25 18:58 UTC.
Position N 29°31' W 094°53'.
Warning: this ship's position is 37 days out of date.

Length 206 m; draft 3 m.

Type: Towing. MMSI: 366998080.

Date/timePositionNaut miles runAvg speedWind from/ knotsBaromVisibWave heightAir tempDewpointWater temp
2017-Aug-19 10:02N 29°31' W 094°53'1 4.1
2017-Aug-19 09:52N 29°32' W 094°54'2 4.4
2017-Aug-19 09:30N 29°33' W 094°55'3 4.9
2017-Aug-19 08:52N 29°36' W 094°57'2 4.8
2017-Aug-19 08:31N 29°37' W 094°58'3 5.1
2017-Aug-19 08:01N 29°40' W 094°59'2 4.6
2017-Aug-19 07:30N 29°42' W 094°60'2 4.1
2017-Aug-19 07:01N 29°43' W 095°01'2 4.5
2017-Aug-19 06:27N 29°45' W 095°04'2 3.1
2017-Aug-19 05:55N 29°45' W 095°06'2 5.3
2017-Aug-19 05:29N 29°44' W 095°08'2 3.8
2017-Aug-19 04:55N 29°45' W 095°10'1 1.4
2017-Aug-19 04:27N 29°45' W 095°11'0 0.1
2017-Aug-19 03:48N 29°45' W 095°11'0 0.0
2017-Aug-19 03:13N 29°45' W 095°11'1 2.6
2017-Aug-19 02:59N 29°45' W 095°10'1 1.0
2017-Aug-19 02:25N 29°45' W 095°11'0 0.1
2017-Aug-19 01:57N 29°45' W 095°11'0 0.5
2017-Aug-19 01:23N 29°45' W 095°10'0 0.0
2017-Aug-18 19:32N 29°45' W 095°10'1 2.5
2017-Aug-18 19:19N 29°45' W 095°11'0 0.3
2017-Aug-18 18:50N 29°45' W 095°11'0 0.1
2017-Aug-18 18:20N 29°45' W 095°11'1 1.1
2017-Aug-18 17:48N 29°45' W 095°10'1 3.7
2017-Aug-18 17:28N 29°44' W 095°09'2 4.4
2017-Aug-18 17:00N 29°44' W 095°07'2 4.2
2017-Aug-18 16:30N 29°46' W 095°05'2 4.1
2017-Aug-18 16:00N 29°44' W 095°03'2 4.3
2017-Aug-18 15:31N 29°43' W 095°01'2 3.7
2017-Aug-18 15:00N 29°42' W 094°60'4 3.9
2017-Aug-18 14:01N 29°38' W 094°58'2 4.4
2017-Aug-18 13:30N 29°36' W 094°57'2 4.5
2017-Aug-18 13:00N 29°34' W 094°56'2 4.7
2017-Aug-18 12:30N 29°32' W 094°54'2 4.8
2017-Aug-18 11:59N 29°30' W 094°52'69 3.3
2017-Aug-17 15:18N 30°03' W 093°43'1 3.7
2017-Aug-17 15:00N 30°03' W 093°42'2 3.6
2017-Aug-17 14:30N 30°04' W 093°40'2 3.6
2017-Aug-17 14:01N 30°04' W 093°38'2 3.6
2017-Aug-17 13:30N 30°04' W 093°36'2 3.7
2017-Aug-17 13:01N 30°04' W 093°34'2 3.8
2017-Aug-17 12:31N 30°04' W 093°31'2 3.9
2017-Aug-17 12:01N 30°04' W 093°29'2 3.9
2017-Aug-17 11:31N 30°04' W 093°27'2 3.9
2017-Aug-17 11:01N 30°04' W 093°25'2 4.0
2017-Aug-17 10:31N 30°04' W 093°22'2 4.0
2017-Aug-17 10:01N 30°05' W 093°20'2 4.4
2017-Aug-17 09:30N 30°06' W 093°19'1 2.7
2017-Aug-17 09:00N 30°05' W 093°18'1 2.2
2017-Aug-17 08:31N 30°05' W 093°17'0 0.6
2017-Aug-17 08:01N 30°04' W 093°16'0 1.0
2017-Aug-17 07:31N 30°04' W 093°16'2 3.9
2017-Aug-17 07:01N 30°02' W 093°15'2 4.0
2017-Aug-17 06:31N 30°01' W 093°14'2 4.6
2017-Aug-17 06:01N 29°59' W 093°12'2 4.4
2017-Aug-17 05:31N 29°57' W 093°10'2 4.0
2017-Aug-17 05:01N 29°56' W 093°09'38 3.5
2017-Aug-16 17:56N 29°53' W 092°24'2 3.8
2017-Aug-16 17:30N 29°52' W 092°23'1 2.0
2017-Aug-16 16:45N 29°51' W 092°22'1 3.7
2017-Aug-16 16:31N 29°51' W 092°21'1 2.0
2017-Aug-16 16:01N 29°50' W 092°20'2 3.5
2017-Aug-16 15:31N 29°50' W 092°18'2 3.7
2017-Aug-16 15:01N 29°49' W 092°16'2 3.9
2017-Aug-16 14:31N 29°48' W 092°14'2 3.4
2017-Aug-16 14:01N 29°47' W 092°12'1 1.8
2017-Aug-16 13:30N 29°47' W 092°11'0 0.0
2017-Aug-16 13:01N 29°47' W 092°11'0 0.3
2017-Aug-16 12:31N 29°47' W 092°11'0 0.5
2017-Aug-16 12:01N 29°47' W 092°11'0 0.0
2017-Aug-16 11:31N 29°47' W 092°11'0 0.0
2017-Aug-16 11:01N 29°47' W 092°11'0 0.0
2017-Aug-16 10:30N 29°47' W 092°11'0 0.0
2017-Aug-16 10:01N 29°47' W 092°11'0 0.0
2017-Aug-16 09:31N 29°47' W 092°11'0 0.0
2017-Aug-16 09:00N 29°47' W 092°11'0 0.0
2017-Aug-16 08:31N 29°47' W 092°11'0 0.1
2017-Aug-16 08:01N 29°47' W 092°11'2 3.2
2017-Aug-16 07:31N 29°47' W 092°09'2 3.9
2017-Aug-16 07:01N 29°48' W 092°07'2 3.5
2017-Aug-16 06:31N 29°48' W 092°05'2 4.1
2017-Aug-16 06:01N 29°49' W 092°03'2 4.1
2017-Aug-16 05:31N 29°50' W 092°01'2 3.6
2017-Aug-16 05:00N 29°50' W 091°59'2 3.7
2017-Aug-16 04:30N 29°51' W 091°56'  
2017-Aug-13 07:06N 30°03' W 090°34'1 3.7
2017-Aug-13 06:50N 30°03' W 090°33'1 3.5
2017-Aug-13 06:31N 30°03' W 090°32'2 3.4
2017-Aug-13 05:57N 30°03' W 090°29'3 0.5
2017-Aug-12 23:57N 30°00' W 090°28'6 3.9
2017-Aug-12 22:25N 29°57' W 090°23'24 1.4
2017-Aug-12 05:20N 29°33' W 090°24'3 4.7
2017-Aug-12 04:47N 29°33' W 090°27'1 4.1
2017-Aug-12 04:30N 29°33' W 090°28'2 4.1
2017-Aug-12 04:00N 29°34' W 090°31'2 4.7
2017-Aug-12 03:30N 29°34' W 090°33'2 4.6
2017-Aug-12 03:00N 29°35' W 090°36'2 4.3
2017-Aug-12 02:30N 29°35' W 090°38'2 4.2
2017-Aug-12 02:00N 29°36' W 090°40'2 3.8
2017-Aug-12 01:30N 29°37' W 090°42'2 3.6
2017-Aug-12 01:00N 29°35' W 090°43'2 3.1
2017-Aug-12 00:30N 29°34' W 090°44'1 2.9
2017-Aug-12 00:00N 29°33' W 090°45'0 0.7
2017-Aug-11 23:30N 29°33' W 090°45'0 0.0
2017-Aug-11 23:00N 29°33' W 090°45'0 0.0
2017-Aug-11 22:30N 29°33' W 090°46'1 2.5
2017-Aug-11 22:00N 29°32' W 090°47'3 5.3
2017-Aug-11 21:30N 29°32' W 090°50'3 5.2
2017-Aug-11 21:00N 29°32' W 090°53'3 5.3
2017-Aug-11 20:30N 29°34' W 090°56'3 5.0
2017-Aug-11 19:59N 29°35' W 090°58'51 3.2
2017-Aug-11 03:53N 29°51' W 091°54'2 4.5
2017-Aug-11 03:27N 29°51' W 091°57'2 4.3
2017-Aug-11 03:00N 29°50' W 091°59'2 4.4
2017-Aug-11 02:30N 29°49' W 092°01'2 4.4
2017-Aug-11 02:00N 29°49' W 092°03'2 4.4
2017-Aug-11 01:30N 29°48' W 092°06'2 4.5
2017-Aug-11 01:00N 29°47' W 092°08'2 4.3
2017-Aug-11 00:30N 29°47' W 092°11'1 1.7
2017-Aug-11 00:00N 29°47' W 092°12'1 2.4
2017-Aug-10 23:30N 29°47' W 092°13'2 3.6
2017-Aug-10 23:00N 29°48' W 092°15'2 4.6
2017-Aug-10 22:30N 29°49' W 092°17'2 4.2
2017-Aug-10 22:00N 29°50' W 092°19'1 2.5
2017-Aug-10 21:30N 29°51' W 092°20'39 4.2
2017-Aug-10 12:17N 29°56' W 093°05'2 4.1
2017-Aug-10 11:48N 29°56' W 093°07'1 4.1
2017-Aug-10 11:30N 29°56' W 093°08'2 3.7
2017-Aug-10 11:00N 29°57' W 093°10'2 4.1
2017-Aug-10 10:30N 29°58' W 093°12'2 4.0
2017-Aug-10 10:00N 29°60' W 093°13'2 3.4
2017-Aug-10 09:30N 30°02' W 093°14'2 3.9
2017-Aug-10 09:00N 30°03' W 093°16'2 3.3
2017-Aug-10 08:30N 30°04' W 093°16'2 3.2
2017-Aug-10 08:00N 30°05' W 093°18'1 2.1
2017-Aug-10 07:30N 30°06' W 093°19'1 1.3
2017-Aug-10 07:00N 30°06' W 093°19'2 4.7
2017-Aug-10 06:30N 30°04' W 093°21'1 1.9
2017-Aug-10 06:00N 30°04' W 093°22'0 0.1
2017-Aug-10 05:30N 30°04' W 093°22'0 0.1
2017-Aug-10 05:00N 30°04' W 093°22'0 0.1
2017-Aug-10 04:30N 30°04' W 093°22'0 0.2
2017-Aug-10 04:00N 30°04' W 093°22'0 0.7
2017-Aug-10 03:30N 30°04' W 093°22'0 0.8
2017-Aug-10 03:00N 30°04' W 093°22'0 1.0
2017-Aug-10 02:30N 30°04' W 093°22'0 0.1
2017-Aug-10 02:00N 30°04' W 093°22'0 0.9
2017-Aug-10 01:30N 30°04' W 093°22'0 0.0
2017-Aug-10 01:00N 30°04' W 093°22'0 0.1
2017-Aug-10 00:30N 30°04' W 093°22'1 2.3
2017-Aug-10 00:00N 30°04' W 093°23'3 5.3
2017-Aug-09 23:30N 30°04' W 093°27'3 5.4
2017-Aug-09 23:00N 30°04' W 093°30'3 5.4
2017-Aug-09 22:30N 30°04' W 093°33'3 5.5
2017-Aug-09 22:00N 30°04' W 093°36'3 5.5
2017-Aug-09 21:30N 30°04' W 093°39'3 5.2
2017-Aug-09 20:59N 30°03' W 093°42'  

Dump ship's entire track history